Time;durP1;ratioP1;P1;durP2;ratioP2;P2;SDS_P1;SDS_P2;PMS_P1;PMS_P2;Temp;Humidity;BMP_temperature;BMP_pressure;BME280_temperature;BME280_humidity;BME280_pressure;Samples;Min_cycle;Max_cycle;Signal;HPM_P1;HPM_P2
2023/12/08 00:01:16;;;;;;;19.52;12.40;;;;;;;0.13;100.00;100781.00;5117803;28;20027;-74
2023/12/08 00:03:42;;;;;;;21.30;12.45;;;;;;;0.11;100.00;100788.91;5117636;28;20454;-74
2023/12/08 00:06:07;;;;;;;26.05;13.23;;;;;;;0.08;100.00;100773.38;5118544;28;20034;-73
2023/12/08 00:08:33;;;;;;;19.92;12.60;;;;;;;0.08;100.00;100772.53;5117961;28;20031;-73
2023/12/08 00:10:59;;;;;;;25.08;13.32;;;;;;;0.06;100.00;100754.28;5118093;28;20136;-74
2023/12/08 00:13:24;;;;;;;20.67;12.48;;;;;;;0.06;100.00;100751.66;5117816;28;20036;-74
2023/12/08 00:15:50;;;;;;;25.25;12.70;;;;;;;0.05;100.00;100736.03;5117302;28;20133;-74
2023/12/08 00:18:15;;;;;;;19.63;11.90;;;;;;;0.04;100.00;100737.78;5116910;28;20027;-74
2023/12/08 00:20:40;;;;;;;22.42;12.88;;;;;;;0.04;100.00;100726.50;5116967;28;20031;-75
2023/12/08 00:23:06;;;;;;;24.92;13.52;;;;;;;0.03;100.00;100733.50;5116956;28;20050;-74
2023/12/08 00:25:32;;;;;;;25.95;13.48;;;;;;;0.03;100.00;100757.06;5117481;28;20114;-73
2023/12/08 00:27:57;;;;;;;20.55;13.10;;;;;;;0.02;100.00;100744.03;5117518;28;20435;-73
2023/12/08 00:30:23;;;;;;;23.77;13.52;;;;;;;0.02;100.00;100751.91;5081765;28;20020;-75
2023/12/08 00:32:49;;;;;;;25.70;13.52;;;;;;;0.02;100.00;100757.13;5116985;28;20023;-74
2023/12/08 00:35:14;;;;;;;21.38;13.18;;;;;;;-0.01;100.00;100756.34;5117062;28;20027;-74
2023/12/08 00:37:40;;;;;;;26.27;13.07;;;;;;;-0.01;100.00;100765.97;5117037;28;20038;-74
2023/12/08 00:40:11;;;;;;;25.38;12.85;;;;;;;-0.01;100.00;100774.66;5116837;28;20039;-74
2023/12/08 00:42:36;;;;;;;22.85;13.00;;;;;;;-0.04;100.00;100766.09;5116938;28;20038;-74
2023/12/08 00:45:02;;;;;;;27.35;13.73;;;;;;;-0.08;100.00;100768.00;5116595;28;20027;-75
2023/12/08 00:47:29;;;;;;;25.80;13.65;;;;;;;-0.13;100.00;100771.78;5119181;28;20045;-75
2023/12/08 00:49:54;;;;;;;23.40;14.20;;;;;;;-0.15;100.00;100776.22;5117491;28;20085;-76
2023/12/08 00:52:20;;;;;;;23.45;13.98;;;;;;;-0.18;100.00;100790.28;5116820;28;20035;-75
2023/12/08 00:54:45;;;;;;;26.60;14.48;;;;;;;-0.19;100.00;100789.44;5098955;28;20458;-76
2023/12/08 00:57:11;;;;;;;32.08;16.15;;;;;;;-0.22;100.00;100784.34;5120348;28;20027;-75
2023/12/08 00:59:36;;;;;;;29.58;15.10;;;;;;;-0.24;100.00;100783.59;5118584;28;20472;-75
2023/12/08 01:02:02;;;;;;;26.48;15.10;;;;;;;-0.23;100.00;100784.41;5083947;28;20031;-75
2023/12/08 01:04:27;;;;;;;28.42;15.93;;;;;;;-0.25;100.00;100774.03;5129670;28;20444;-75
2023/12/08 01:06:52;;;;;;;36.70;15.35;;;;;;;-0.27;100.00;100781.13;5135121;28;20024;-76
2023/12/08 01:09:17;;;;;;;31.20;15.45;;;;;;;-0.28;100.00;100773.34;5136481;28;20039;-77
2023/12/08 01:11:43;;;;;;;35.63;16.77;;;;;;;-0.28;100.00;100770.72;5135877;28;20048;-74
2023/12/08 01:14:09;;;;;;;27.98;16.23;;;;;;;-0.31;100.00;100769.09;5134425;28;20039;-74
2023/12/08 01:16:40;;;;;;;33.20;16.38;;;;;;;-0.32;100.00;100769.16;5115882;28;20034;-76
2023/12/08 01:19:08;;;;;;;33.67;16.45;;;;;;;-0.37;100.00;100769.38;5120298;28;20095;-75
2023/12/08 01:21:33;;;;;;;33.92;17.02;;;;;;;-0.40;100.00;100759.06;5118138;28;20104;-74
2023/12/08 01:23:59;;;;;;;32.30;17.85;;;;;;;-0.41;100.00;100754.75;5117261;28;20409;-74
2023/12/08 01:26:24;;;;;;;34.72;17.67;;;;;;;-0.46;100.00;100754.09;5116750;28;20028;-75
2023/12/08 01:28:49;;;;;;;40.20;18.65;;;;;;;-0.46;100.00;100751.47;5116486;28;20512;-75
2023/12/08 01:31:15;;;;;;;30.33;17.30;;;;;;;-0.45;100.00;100748.81;5115777;28;20020;-75
2023/12/08 01:33:40;;;;;;;42.83;18.42;;;;;;;-0.44;100.00;100742.66;5115853;28;20514;-74
2023/12/08 01:36:06;;;;;;;37.78;18.42;;;;;;;-0.43;100.00;100735.69;5115500;28;20028;-75
2023/12/08 01:38:31;;;;;;;38.63;19.55;;;;;;;-0.42;100.00;100717.31;5115282;28;20023;-75
2023/12/08 01:40:56;;;;;;;40.00;20.35;;;;;;;-0.39;100.00;100717.16;5115768;28;20107;-75
2023/12/08 01:43:22;;;;;;;44.28;19.65;;;;;;;-0.39;100.00;100708.44;5115646;28;20027;-74
2023/12/08 01:45:47;;;;;;;40.20;19.58;;;;;;;-0.37;100.00;100698.78;5115192;28;20039;-74
2023/12/08 01:48:13;;;;;;;36.72;19.65;;;;;;;-0.34;100.00;100703.00;5115599;28;20455;-75
2023/12/08 01:50:39;;;;;;;43.22;19.38;;;;;;;-0.33;100.00;100686.41;5115501;28;20023;-76
2023/12/08 01:53:06;;;;;;;40.85;20.15;;;;;;;-0.32;100.00;100681.09;5114978;28;20448;-74
2023/12/08 01:55:31;;;;;;;47.13;21.50;;;;;;;-0.30;100.00;100674.06;5115399;28;20394;-74
2023/12/08 01:57:58;;;;;;;42.90;20.05;;;;;;;-0.31;100.00;100687.16;5115126;28;20042;-77
2023/12/08 02:00:23;;;;;;;39.83;19.38;;;;;;;-0.29;100.00;100701.88;5114966;28;20091;-75
2023/12/08 02:02:49;;;;;;;40.47;20.08;;;;;;;-0.28;100.00;100684.44;5115705;28;20385;-75
2023/12/08 02:05:16;;;;;;;42.33;20.65;;;;;;;-0.26;100.00;100680.81;5114929;28;20129;-75
2023/12/08 02:07:43;;;;;;;47.08;21.58;;;;;;;-0.24;100.00;100683.34;5114639;28;20106;-75
2023/12/08 02:10:09;;;;;;;45.63;20.55;;;;;;;-0.25;100.00;100672.03;5115128;28;20028;-75
2023/12/08 02:12:34;;;;;;;40.83;21.83;;;;;;;-0.23;100.00;100667.56;5114839;28;20070;-74
2023/12/08 02:15:00;;;;;;;51.75;23.90;;;;;;;-0.21;100.00;100651.81;5114776;28;20077;-75
2023/12/08 02:17:32;;;;;;;44.75;22.50;;;;;;;-0.19;100.00;100650.00;5096271;28;20050;-75
2023/12/08 02:19:59;;;;;;;47.00;22.10;;;;;;;-0.19;100.00;100658.66;5096413;28;20031;-74
2023/12/08 02:22:25;;;;;;;45.60;22.10;;;;;;;-0.19;100.00;100666.50;5114551;28;20044;-75
2023/12/08 02:24:51;;;;;;;49.53;23.13;;;;;;;-0.18;100.00;100672.59;5114424;28;20126;-74
2023/12/08 02:27:16;;;;;;;48.42;22.98;;;;;;;-0.18;100.00;100677.81;5114556;28;20035;-74
2023/12/08 02:29:42;;;;;;;50.60;23.27;;;;;;;-0.17;100.00;100674.28;5096459;28;20028;-73
2023/12/08 02:32:11;;;;;;;48.70;23.80;;;;;;;-0.15;100.00;100666.38;5114532;28;20023;-74
2023/12/08 02:34:40;;;;;;;48.30;23.20;;;;;;;-0.13;100.00;100673.22;5114835;28;20032;-74
2023/12/08 02:37:08;;;;;;;41.88;22.73;;;;;;;-0.12;100.00;100697.59;5114440;28;20024;-73
2023/12/08 02:39:35;;;;;;;49.90;23.60;;;;;;;-0.11;100.00;100705.38;5114390;28;20463;-74
2023/12/08 02:42:01;;;;;;;48.22;24.63;;;;;;;-0.11;100.00;100705.38;5096304;28;20028;-73
2023/12/08 02:44:26;;;;;;;49.28;22.50;;;;;;;-0.10;100.00;100708.84;5114253;28;20118;-74
2023/12/08 02:46:52;;;;;;;44.58;23.00;;;;;;;-0.10;100.00;100707.06;5114340;28;20102;-75
2023/12/08 02:49:17;;;;;;;50.17;23.67;;;;;;;-0.09;100.00;100703.56;5114230;28;20070;-75
2023/12/08 02:51:43;;;;;;;53.40;23.67;;;;;;;-0.08;100.00;100701.78;5114332;28;20024;-74
2023/12/08 02:54:08;;;;;;;50.95;24.17;;;;;;;-0.10;100.00;100694.00;5096505;28;20024;-75
2023/12/08 02:56:33;;;;;;;48.38;22.75;;;;;;;-0.08;100.00;100701.78;5114076;28;20032;-75
2023/12/08 02:58:59;;;;;;;53.95;24.65;;;;;;;-0.07;100.00;100690.41;5113858;28;20027;-73
2023/12/08 03:01:24;;;;;;;55.67;24.50;;;;;;;-0.05;100.00;100683.31;5095745;28;20036;-75
2023/12/08 03:03:49;;;;;;;54.95;23.90;;;;;;;-0.05;100.00;100681.53;5114062;28;20024;-75
2023/12/08 03:06:15;;;;;;;49.72;23.95;;;;;;;-0.05;100.00;100673.69;5113681;28;20024;-74
2023/12/08 03:08:40;;;;;;;60.33;24.02;;;;;;;-0.03;100.00;100671.84;5114573;28;20027;-74
2023/12/08 03:11:05;;;;;;;59.50;25.60;;;;;;;-0.01;100.00;100671.78;5113867;28;20059;-75
2023/12/08 03:13:31;;;;;;;53.83;24.48;;;;;;;-0.01;100.00;100659.53;5095952;28;20382;-74
2023/12/08 03:15:56;;;;;;;48.55;24.10;;;;;;;-0.02;100.00;100657.84;5113593;28;20073;-75
2023/12/08 03:18:21;;;;;;;57.22;24.55;;;;;;;-0.01;100.00;100637.78;5113475;28;20450;-74
2023/12/08 03:20:47;;;;;;;50.08;24.30;;;;;;;-0.01;100.00;100620.28;5113197;28;20062;-85
2023/12/08 03:23:12;;;;;;;52.20;23.73;;;;;;;0.01;100.00;100604.53;5113242;28;20048;-85
2023/12/08 03:25:38;;;;;;;50.90;23.48;;;;;;;0.02;100.00;100615.84;5113147;28;20482;-82
2023/12/08 03:28:03;;;;;;;47.25;22.33;;;;;;;0.02;100.00;100610.63;5112788;28;20035;-85
2023/12/08 03:30:28;;;;;;;58.78;24.88;;;;;;;0.04;100.00;100603.53;5113124;28;20456;-84
2023/12/08 03:32:54;;;;;;;56.13;23.48;;;;;;;0.03;100.00;100628.84;5113249;28;20027;-85
2023/12/08 03:35:20;;;;;;;54.88;23.33;;;;;;;0.05;100.00;100629.63;5113444;28;20376;-84
2023/12/08 03:37:45;;;;;;;48.65;22.90;;;;;;;0.05;100.00;100610.47;5113313;28;20031;-84
2023/12/08 03:40:11;;;;;;;51.42;22.67;;;;;;;0.05;100.00;100615.69;5113453;28;20043;-85
2023/12/08 03:42:37;;;;;;;56.75;23.40;;;;;;;0.05;100.00;100626.16;5113890;28;20035;-84
2023/12/08 03:45:04;;;;;;;55.38;23.52;;;;;;;0.06;100.00;100628.69;5113491;28;20038;-85
2023/12/08 03:47:29;;;;;;;50.95;22.92;;;;;;;0.07;100.00;100630.38;5112924;28;20015;-83
2023/12/08 03:49:55;;;;;;;51.47;23.15;;;;;;;0.10;100.00;100626.75;5114449;28;20119;-85
2023/12/08 03:52:20;;;;;;;48.35;24.00;;;;;;;0.10;100.00;100632.00;5113681;28;20344;-85
2023/12/08 03:54:45;;;;;;;48.30;23.20;;;;;;;0.09;100.00;100622.44;5113165;28;20476;-85
2023/12/08 03:57:11;;;;;;;54.75;23.20;;;;;;;0.10;100.00;100609.28;5113317;28;20039;-81
2023/12/08 03:59:36;;;;;;;56.00;23.38;;;;;;;0.12;100.00;100622.28;5078319;28;20030;-83
2023/12/08 04:02:02;;;;;;;50.88;22.45;;;;;;;0.15;100.00;100635.22;5113049;28;20452;-83
2023/12/08 04:04:27;;;;;;;54.60;22.40;;;;;;;0.15;100.00;100637.84;5113214;28;20081;-84
2023/12/08 04:06:54;;;;;;;50.00;23.13;;;;;;;0.16;100.00;100629.06;5113358;28;20028;-83
2023/12/08 04:09:20;;;;;;;50.63;22.50;;;;;;;0.16;100.00;100614.25;5113125;28;20426;-83
2023/12/08 04:11:45;;;;;;;52.72;22.80;;;;;;;0.17;100.00;100610.66;5094500;28;20066;-84
2023/12/08 04:14:10;;;;;;;52.42;22.90;;;;;;;0.17;100.00;100610.66;5112832;28;20124;-81
2023/12/08 04:16:36;;;;;;;52.33;23.08;;;;;;;0.21;100.00;100610.50;5113010;28;20463;-84
2023/12/08 04:19:01;;;;;;;53.63;22.58;;;;;;;0.22;100.00;100599.97;5113304;28;20080;-84
2023/12/08 04:21:26;;;;;;;47.72;21.33;;;;;;;0.21;100.00;100600.91;5112890;28;20032;-85
2023/12/08 04:23:52;;;;;;;53.15;22.20;;;;;;;0.23;100.00;100608.69;5113014;28;20104;-84
2023/12/08 04:26:24;;;;;;;52.55;22.73;;;;;;;0.24;100.00;100608.59;5112489;28;20032;-84
2023/12/08 04:28:53;;;;;;;51.95;21.95;;;;;;;0.25;100.00;100615.50;5112868;28;20401;-84
2023/12/08 04:31:19;;;;;;;54.60;22.73;;;;;;;0.26;100.00;100622.44;5113094;28;20043;-83
2023/12/08 04:33:44;;;;;;;55.65;23.00;;;;;;;0.26;100.00;100611.97;5112497;28;20023;-83
2023/12/08 04:36:09;;;;;;;46.63;20.58;;;;;;;0.28;100.00;100622.38;5112932;28;20085;-85
2023/12/08 04:38:35;;;;;;;50.15;21.90;;;;;;;0.30;100.00;100615.28;5113143;28;20058;-84
2023/12/08 04:41:00;;;;;;;51.65;22.92;;;;;;;0.31;100.00;100616.97;5097211;28;20034;-83
2023/12/08 04:43:26;;;;;;;58.45;22.73;;;;;;;0.31;100.00;100602.13;5116563;28;20023;-85
2023/12/08 04:45:51;;;;;;;44.95;21.05;;;;;;;0.32;100.00;100601.19;5116869;28;20081;-85
2023/12/08 04:48:17;;;;;;;56.95;21.75;;;;;;;0.32;100.00;100595.97;5115921;28;20024;-84
2023/12/08 04:50:42;;;;;;;48.08;22.00;;;;;;;0.34;100.00;100601.09;5115641;28;20341;-84
2023/12/08 04:53:07;;;;;;;48.95;22.25;;;;;;;0.35;100.00;100600.19;5116317;28;20027;-85
2023/12/08 04:55:33;;;;;;;48.33;21.30;;;;;;;0.36;100.00;100604.50;5115733;28;20490;-83
2023/12/08 04:57:58;;;;;;;48.63;21.83;;;;;;;0.38;100.00;100604.44;5116817;28;20064;-85
2023/12/08 05:00:23;;;;;;;46.67;21.45;;;;;;;0.39;100.00;100603.50;5116284;28;20542;-85
2023/12/08 05:02:49;;;;;;;44.60;21.80;;;;;;;0.40;100.00;100599.94;5115705;28;20373;-85
2023/12/08 05:05:14;;;;;;;53.95;22.30;;;;;;;0.41;100.00;100596.41;5116336;28;20042;-85
2023/12/08 05:07:39;;;;;;;50.88;21.58;;;;;;;0.43;100.00;100597.19;5097885;28;20103;-85
2023/12/08 05:10:05;;;;;;;49.67;22.52;;;;;;;0.44;100.00;100604.13;5097434;28;20055;-85
2023/12/08 05:12:31;;;;;;;51.75;21.40;;;;;;;0.45;100.00;100608.41;5115403;28;20036;-87
2023/12/08 05:14:56;;;;;;;49.13;22.13;;;;;;;0.46;100.00;100620.56;5115443;28;20019;-84
2023/12/08 05:17:21;;;;;;;40.13;19.63;;;;;;;0.46;100.00;100626.69;5116344;28;20511;-84
2023/12/08 05:19:47;;;;;;;45.17;21.77;;;;;;;0.49;100.00;100620.41;5117335;28;20031;-85
2023/12/08 05:22:12;;;;;;;49.80;21.60;;;;;;;0.50;100.00;100609.03;5117028;28;20028;-84
2023/12/08 05:24:38;;;;;;;50.40;21.17;;;;;;;0.52;100.00;100607.16;5123557;28;20039;-84
2023/12/08 05:27:03;;;;;;;45.67;20.90;;;;;;;0.53;100.00;100601.84;5133006;28;20085;-84
2023/12/08 05:29:28;;;;;;;41.83;21.33;;;;;;;0.54;100.00;100607.94;5134014;28;20047;-83
2023/12/08 05:31:54;;;;;;;55.40;22.17;;;;;;;0.55;100.00;100603.53;5134997;28;20019;-84
2023/12/08 05:34:19;;;;;;;44.67;21.20;;;;;;;0.57;100.00;100599.06;5134566;28;20035;-83
2023/12/08 05:36:44;;;;;;;54.08;21.85;;;;;;;0.58;100.00;100600.75;5134287;28;20031;-84
2023/12/08 05:39:10;;;;;;;48.22;22.42;;;;;;;0.59;100.00;100599.84;5129748;28;20103;-85
2023/12/08 05:41:37;;;;;;;46.92;23.02;;;;;;;0.61;100.00;100606.69;5100155;28;20070;-85
2023/12/08 05:44:02;;;;;;;46.97;21.10;;;;;;;0.62;100.00;100602.31;5115595;28;20031;-84
2023/12/08 05:46:28;;;;;;;48.08;20.88;;;;;;;0.62;100.00;100597.91;5115310;28;20022;-83
2023/12/08 05:48:53;;;;;;;49.75;21.98;;;;;;;0.63;100.00;100607.47;5115631;28;20031;-84
2023/12/08 05:51:19;;;;;;;50.83;22.20;;;;;;;0.64;100.00;100603.91;5115318;28;20095;-84
2023/12/08 05:53:44;;;;;;;47.30;22.67;;;;;;;0.66;100.00;100602.06;5115255;28;20031;-84
2023/12/08 05:56:11;;;;;;;52.67;21.75;;;;;;;0.67;100.00;100606.38;5096966;28;20374;-83
2023/12/08 05:58:36;;;;;;;54.22;22.00;;;;;;;0.69;100.00;100622.84;5115183;28;20027;-84
2023/12/08 06:01:02;;;;;;;46.67;21.33;;;;;;;0.70;100.00;100621.06;5114771;28;20419;-83
2023/12/08 06:03:28;;;;;;;50.80;22.08;;;;;;;0.70;100.00;100621.94;5114667;28;20068;-85
2023/12/08 06:05:53;;;;;;;53.15;22.55;;;;;;;0.73;100.00;100625.28;5115190;28;20031;-83
2023/12/08 06:08:18;;;;;;;56.70;23.08;;;;;;;0.74;100.00;100627.84;5096439;28;20182;-84
2023/12/08 06:10:44;;;;;;;54.72;23.23;;;;;;;0.74;100.00;100629.63;5114509;28;20028;-84
2023/12/08 06:13:09;;;;;;;59.20;22.85;;;;;;;0.76;100.00;100627.75;5114693;28;20024;-85
2023/12/08 06:15:34;;;;;;;50.03;22.88;;;;;;;0.77;100.00;100624.22;5114827;28;20019;-86
2023/12/08 06:17:59;;;;;;;50.60;23.05;;;;;;;0.77;100.00;100619.81;5097053;28;20039;-86
2023/12/08 06:20:25;;;;;;;53.65;23.52;;;;;;;0.79;100.00;100617.09;5113854;28;20024;-85
2023/12/08 06:22:50;;;;;;;47.85;21.50;;;;;;;0.79;100.00;100617.97;5096003;28;20113;-85
2023/12/08 06:25:16;;;;;;;58.75;23.55;;;;;;;0.80;100.00;100617.03;5113854;28;20027;-83
2023/12/08 06:27:41;;;;;;;46.85;22.67;;;;;;;0.82;100.00;100627.41;5114588;28;20031;-85
2023/12/08 06:30:11;;;;;;;55.33;24.52;;;;;;;0.82;100.00;100627.41;5114395;28;20027;-84
2023/12/08 06:32:36;;;;;;;59.75;24.30;;;;;;;0.84;100.00;100631.66;5114110;28;20030;-83
2023/12/08 06:35:02;;;;;;;52.85;22.58;;;;;;;0.85;100.00;100629.88;5114079;28;20024;-84
2023/12/08 06:37:27;;;;;;;62.03;24.52;;;;;;;0.86;100.00;100627.16;5095788;28;20459;-83
2023/12/08 06:39:52;;;;;;;56.40;23.52;;;;;;;0.87;100.00;100630.66;5113826;28;20023;-83
2023/12/08 06:42:18;;;;;;;55.80;23.30;;;;;;;0.87;100.00;100628.88;5113783;28;20051;-83
2023/12/08 06:44:43;;;;;;;59.97;23.45;;;;;;;0.90;100.00;100633.13;5113427;28;20356;-83
2023/12/08 06:47:09;;;;;;;66.30;24.48;;;;;;;0.91;100.00;100637.44;5113756;28;20479;-83
2023/12/08 06:49:34;;;;;;;52.97;23.83;;;;;;;0.94;100.00;100626.78;5113669;28;20028;-83
2023/12/08 06:51:59;;;;;;;58.67;23.02;;;;;;;0.95;100.00;100627.63;5113449;28;20034;-83
2023/12/08 06:54:25;;;;;;;66.28;24.98;;;;;;;0.95;100.00;100625.84;5113511;28;20035;-83
2023/12/08 06:56:50;;;;;;;55.83;23.17;;;;;;;0.99;100.00;100618.69;5113373;28;20034;-83
2023/12/08 06:59:15;;;;;;;60.30;23.35;;;;;;;1.00;100.00;100615.97;5113414;28;20028;-83
2023/12/08 07:01:41;;;;;;;61.65;26.08;;;;;;;1.02;100.00;100621.97;5095397;28;20042;-83
2023/12/08 07:04:07;;;;;;;64.50;24.65;;;;;;;1.04;100.00;100633.19;5094831;28;20032;-83
2023/12/08 07:06:33;;;;;;;72.78;26.50;;;;;;;1.07;100.00;100633.97;5113777;28;20381;-82
2023/12/08 07:08:58;;;;;;;69.50;25.75;;;;;;;1.11;100.00;100632.88;5113195;28;20394;-83
2023/12/08 07:11:24;;;;;;;84.07;26.17;;;;;;;1.12;100.00;100635.44;5113016;28;20023;-82
2023/12/08 07:13:49;;;;;;;69.03;25.00;;;;;;;1.17;100.00;100640.41;5113498;28;20029;-83
2023/12/08 07:16:14;;;;;;;74.65;25.40;;;;;;;1.19;100.00;100641.16;5113334;28;20062;-83
2023/12/08 07:18:40;;;;;;;76.47;27.63;;;;;;;1.21;100.00;100641.94;5095383;28;20024;-82
2023/12/08 07:21:06;;;;;;;76.88;26.70;;;;;;;1.22;100.00;100641.88;5112739;28;20047;-83
2023/12/08 07:23:32;;;;;;;79.50;26.77;;;;;;;1.23;100.00;100640.06;5112662;28;20083;-83
2023/12/08 07:25:57;;;;;;;78.75;26.58;;;;;;;1.22;100.00;100641.88;5112975;28;20039;-83
2023/12/08 07:28:22;;;;;;;81.70;27.20;;;;;;;1.25;100.00;100643.44;5113383;28;20077;-82
2023/12/08 07:30:48;;;;;;;89.28;26.75;;;;;;;1.30;100.00;100640.56;5113135;28;20027;-82
2023/12/08 07:33:13;;;;;;;88.25;28.70;;;;;;;1.32;100.00;100644.81;5112976;28;20031;-83
2023/12/08 07:35:38;;;;;;;90.70;27.05;;;;;;;1.35;100.00;100646.44;5112932;28;20433;-81
2023/12/08 07:38:04;;;;;;;87.53;27.73;;;;;;;1.38;100.00;100643.63;5112629;28;20030;-83
2023/12/08 07:40:29;;;;;;;97.55;28.60;;;;;;;1.39;100.00;100640.94;5112712;28;20110;-83
2023/12/08 07:42:55;;;;;;;105.72;28.92;;;;;;;1.41;100.00;100644.28;5094977;28;20035;-83
2023/12/08 07:45:20;;;;;;;96.22;27.48;;;;;;;1.44;100.00;100650.31;5094597;28;20472;-83
2023/12/08 07:47:47;;;;;;;113.43;29.63;;;;;;;1.45;100.00;100658.09;5112846;28;20019;-83
2023/12/08 07:50:13;;;;;;;111.78;29.90;;;;;;;1.49;100.00;100664.00;5095352;28;20027;-83
2023/12/08 07:52:41;;;;;;;102.53;28.27;;;;;;;1.52;100.00;100675.19;5112963;28;20020;-82
2023/12/08 07:55:10;;;;;;;95.53;28.73;;;;;;;1.57;100.00;100680.19;5112968;28;20447;-83
2023/12/08 07:57:35;;;;;;;103.90;29.25;;;;;;;1.58;100.00;100676.59;5094512;28;20198;-83
2023/12/08 08:00:03;;;;;;;108.68;30.00;;;;;;;1.62;100.00;100677.28;5112809;28;20059;-83
2023/12/08 08:02:29;;;;;;;78.88;26.40;;;;;;;1.63;100.00;100681.59;5112808;28;20532;-82
2023/12/08 08:04:54;;;;;;;104.50;29.02;;;;;;;1.65;100.00;100683.19;5112719;28;20054;-81
2023/12/08 08:07:19;;;;;;;113.45;28.02;;;;;;;1.67;100.00;100685.75;5112728;28;20031;-81
2023/12/08 08:09:45;;;;;;;123.90;30.33;;;;;;;1.71;100.00;100692.53;5112696;28;20042;-82
2023/12/08 08:12:10;;;;;;;117.30;29.60;;;;;;;1.75;100.00;100686.19;5112598;28;20054;-87
2023/12/08 08:14:36;;;;;;;132.93;29.88;;;;;;;1.79;100.00;100689.47;5116273;28;20055;-81
2023/12/08 08:17:01;;;;;;;109.65;30.02;;;;;;;1.80;100.00;100684.13;5117059;28;20123;-81
2023/12/08 08:19:27;;;;;;;118.68;29.67;;;;;;;1.84;100.00;100685.66;5117230;28;20027;-79
2023/12/08 08:21:53;;;;;;;120.68;31.38;;;;;;;1.86;100.00;100686.41;5116820;28;20512;-80
2023/12/08 08:24:18;;;;;;;119.07;30.08;;;;;;;1.90;100.00;100690.53;5116137;28;20044;-80
2023/12/08 08:26:44;;;;;;;122.15;31.02;;;;;;;1.94;100.00;100699.94;5116482;28;20035;-80
2023/12/08 08:29:09;;;;;;;111.10;29.23;;;;;;;1.97;100.00;100698.94;5116426;28;20023;-80
2023/12/08 08:31:35;;;;;;;144.30;31.60;;;;;;;2.00;100.00;100706.63;5116250;28;20088;-82
2023/12/08 08:34:00;;;;;;;139.90;30.70;;;;;;;2.03;100.00;100700.34;5116348;28;20027;-81
2023/12/08 08:36:26;;;;;;;135.00;32.33;;;;;;;2.05;100.00;100704.56;5116061;28;20028;-78
2023/12/08 08:38:51;;;;;;;126.53;31.42;;;;;;;2.09;100.00;100710.47;5097700;28;20059;-83
2023/12/08 08:41:18;;;;;;;157.85;32.10;;;;;;;2.12;100.00;100707.72;5116137;28;20027;-82
2023/12/08 08:43:43;;;;;;;122.60;31.20;;;;;;;2.17;100.00;100707.44;5115983;28;20019;-83
2023/12/08 08:46:08;;;;;;;148.30;32.75;;;;;;;2.20;100.00;100702.84;5116099;28;20051;-84
2023/12/08 08:48:34;;;;;;;153.35;30.45;;;;;;;2.25;100.00;100711.28;5116615;28;20024;-81
2023/12/08 08:50:59;;;;;;;119.05;30.73;;;;;;;2.28;100.00;100721.66;5097547;28;20083;-81
2023/12/08 08:53:24;;;;;;;142.38;34.63;;;;;;;2.30;100.00;100708.44;5115622;28;20020;-82
2023/12/08 08:55:50;;;;;;;149.02;33.00;;;;;;;2.35;100.00;100718.66;5115336;28;20023;-83
2023/12/08 08:58:15;;;;;;;149.43;33.95;;;;;;;2.39;100.00;100714.91;5115603;28;20153;-81
2023/12/08 09:00:41;;;;;;;150.38;33.20;;;;;;;2.43;100.00;100719.03;5096934;28;20043;-81
2023/12/08 09:03:06;;;;;;;131.63;32.33;;;;;;;2.47;100.00;100720.56;5114774;28;20024;-80
2023/12/08 09:05:34;;;;;;;128.30;32.00;;;;;;;2.52;100.00;100718.50;5096577;28;20038;-81
2023/12/08 09:07:59;;;;;;;163.00;34.60;;;;;;;2.57;100.00;100726.97;5115105;28;20092;-80
2023/12/08 09:10:24;;;;;;;158.23;34.85;;;;;;;2.62;100.00;100724.91;5115513;28;20031;-82
2023/12/08 09:12:50;;;;;;;181.02;35.92;;;;;;;2.71;100.00;100728.78;5115390;28;20488;-80
2023/12/08 09:15:16;;;;;;;189.20;35.45;;;;;;;2.77;100.00;100725.78;5115041;28;20032;-83
2023/12/08 09:17:42;;;;;;;189.07;36.70;;;;;;;2.83;100.00;100728.03;5096767;28;20034;-81
2023/12/08 09:20:13;;;;;;;158.77;33.65;;;;;;;2.90;100.00;100720.66;5114738;28;20069;-80
2023/12/08 09:22:39;;;;;;;157.02;35.60;;;;;;;2.99;100.00;100733.22;5096673;28;20074;-84
2023/12/08 09:25:05;;;;;;;197.35;36.65;;;;;;;3.08;100.00;100729.19;5114635;28;20100;-85
2023/12/08 09:27:30;;;;;;;198.25;40.15;;;;;;;3.20;100.00;100724.13;5114636;28;20031;-83
2023/12/08 09:29:56;;;;;;;159.70;36.05;;;;;;;3.35;100.00;100737.16;5114454;28;20457;-82
2023/12/08 09:32:21;;;;;;;163.80;35.28;;;;;;;3.52;100.00;100735.28;5114755;28;20462;-84
2023/12/08 09:34:47;;;;;;;173.18;38.10;;;;;;;3.65;100.00;100741.44;5096485;28;20024;-86
2023/12/08 09:37:13;;;;;;;156.20;35.70;;;;;;;3.74;100.00;100739.19;5114113;28;20459;-84
2023/12/08 09:39:38;;;;;;;178.50;39.17;;;;;;;3.84;100.00;100749.03;5096089;28;20035;-83
2023/12/08 09:42:08;;;;;;;161.80;36.47;;;;;;;3.92;100.00;100758.22;5114192;28;20095;-84
2023/12/08 09:44:34;;;;;;;161.20;36.38;;;;;;;3.97;100.00;100751.75;5114035;28;20023;-81
2023/12/08 09:47:03;;;;;;;148.27;35.33;;;;;;;3.99;100.00;100752.47;5114508;28;20035;-81
2023/12/08 09:49:30;;;;;;;142.65;34.90;;;;;;;4.04;100.00;100753.00;5113992;28;20471;-82
2023/12/08 09:51:56;;;;;;;149.68;34.53;;;;;;;4.04;100.00;100744.28;5114458;28;20028;-80
2023/12/08 09:54:23;;;;;;;147.70;33.75;;;;;;;4.08;100.00;100750.19;5114299;28;20035;-85
2023/12/08 09:56:54;;;;;;;152.60;36.67;;;;;;;4.12;100.00;100751.66;5114765;28;20443;-85
2023/12/08 09:59:27;;;;;;;138.18;34.25;;;;;;;4.17;100.00;100760.97;5114946;28;20073;-77
2023/12/08 10:01:54;;;;;;;173.45;35.63;;;;;;;4.22;100.00;100755.41;5114196;28;20114;-82
2023/12/08 10:04:20;;;;;;;159.57;34.28;;;;;;;4.27;100.00;100760.38;5114702;28;20032;-82
2023/12/08 10:06:46;;;;;;;167.30;34.72;;;;;;;4.34;100.00;100772.19;5113662;28;20034;-78
2023/12/08 10:09:17;;;;;;;159.23;35.55;;;;;;;4.42;100.00;100764.66;5113787;28;20077;-78
2023/12/08 10:11:44;;;;;;;146.48;33.58;;;;;;;4.50;100.00;100779.94;5095747;28;20034;-77
2023/12/08 10:14:12;;;;;;;160.57;35.53;;;;;;;4.58;100.00;100769.72;5114181;28;20046;-78
2023/12/08 10:16:37;;;;;;;165.55;35.50;;;;;;;4.64;100.00;100765.84;5114514;28;20412;-81
2023/12/08 10:19:07;;;;;;;153.75;34.47;;;;;;;4.72;100.00;100759.13;5113982;28;20031;-81
2023/12/08 10:21:34;;;;;;;128.02;32.13;;;;;;;4.82;100.00;100763.75;5114443;28;20032;-80
2023/12/08 10:24:00;;;;;;;142.20;32.47;;;;;;;4.90;100.00;100762.28;5114256;28;20100;-84
2023/12/08 10:26:26;;;;;;;127.43;34.42;;;;;;;4.94;100.00;100758.50;5095949;28;20114;-81
2023/12/08 10:29:01;;;;;;;153.23;33.92;;;;;;;4.97;100.00;100749.56;5114405;28;20051;-80
2023/12/08 10:31:28;;;;;;;148.93;33.22;;;;;;;5.02;100.00;100752.69;5114394;28;20083;-79
2023/12/08 10:33:54;;;;;;;132.48;31.48;;;;;;;5.04;100.00;100757.88;5114339;28;20355;-80
2023/12/08 10:36:20;;;;;;;145.32;33.13;;;;;;;5.07;100.00;100750.59;5113774;28;20031;-80
2023/12/08 10:38:46;;;;;;;150.63;32.13;;;;;;;5.12;100.00;100750.28;5113186;28;20032;-81
2023/12/08 10:41:13;;;;;;;147.50;32.80;;;;;;;5.20;100.00;100755.03;5114110;28;20065;-77
2023/12/08 10:43:39;;;;;;;150.45;31.92;;;;;;;5.28;100.00;100757.97;5113828;28;20451;-82
2023/12/08 10:46:06;;;;;;;154.82;31.98;;;;;;;5.35;100.00;100764.50;5113813;28;20020;-79
2023/12/08 10:48:32;;;;;;;156.40;32.97;;;;;;;5.40;100.00;100757.09;5113812;28;20463;-78
2023/12/08 10:50:58;;;;;;;145.90;32.58;;;;;;;5.44;100.00;100757.75;5113582;28;20069;-79
2023/12/08 10:53:25;;;;;;;167.65;33.90;;;;;;;5.46;100.00;100766.38;5114019;28;20031;-78
2023/12/08 10:56:26;;;;;;;124.60;30.95;;;;;;;5.49;100.00;100763.53;5095673;28;20024;-79
2023/12/08 10:58:58;;;;;;;127.47;29.03;;;;;;;5.51;100.00;100763.44;5011558;28;20068;-78